createdAt,value
2019-05-15T00:01:48.950Z,94595.03
2019-05-15T00:04:18.884Z,94599.26
2019-05-15T00:06:48.712Z,94591.95
2019-05-15T00:09:19.176Z,94600.61
2019-05-15T00:11:49.090Z,94603.48
2019-05-15T00:14:18.571Z,94611.08
2019-05-15T00:16:48.318Z,94616.12
2019-05-15T00:19:18.791Z,94622.00
2019-05-15T00:21:49.674Z,94620.33
2019-05-15T00:24:19.189Z,94618.88
2019-05-15T00:26:48.817Z,94625.11
2019-05-15T00:29:19.758Z,94621.08
2019-05-15T00:31:49.798Z,94620.89
2019-05-15T00:34:20.328Z,94615.25
2019-05-15T00:36:49.750Z,94610.30
2019-05-15T00:39:20.214Z,94610.28
2019-05-15T00:41:54.552Z,94602.88
2019-05-15T00:44:21.643Z,94599.70
2019-05-15T00:46:51.061Z,94602.58
2019-05-15T00:49:20.550Z,94603.14
2019-05-15T00:51:50.173Z,94611.88
2019-05-15T00:54:20.823Z,94606.44
2019-05-15T00:56:50.314Z,94605.33
2019-05-15T00:59:26.304Z,94602.46
2019-05-15T01:01:51.000Z,94605.37
2019-05-15T01:04:20.416Z,94600.23
2019-05-15T01:06:52.679Z,94588.14
2019-05-15T01:09:21.023Z,94587.95
2019-05-15T01:11:50.438Z,94591.92
2019-05-15T01:14:19.876Z,94592.30
2019-05-15T01:16:49.394Z,94582.92
2019-05-15T01:19:18.892Z,94585.11
2019-05-15T01:21:48.362Z,94589.34
2019-05-15T01:24:18.872Z,94593.99
2019-05-15T01:26:49.306Z,94586.36
2019-05-15T01:29:20.602Z,94575.32
2019-05-15T01:31:50.160Z,94595.20
2019-05-15T01:34:19.650Z,94592.11
2019-05-15T01:36:49.229Z,94584.81
2019-05-15T01:39:18.814Z,94577.40
2019-05-15T01:41:49.570Z,94573.55
2019-05-15T01:44:19.302Z,94574.64
2019-05-15T01:46:48.793Z,94570.30
2019-05-15T01:49:18.785Z,94572.19
2019-05-15T01:51:49.526Z,94568.97
2019-05-15T01:54:19.055Z,94569.20
2019-05-15T01:56:49.412Z,94563.38
2019-05-15T01:59:19.194Z,94569.01
2019-05-15T02:01:48.810Z,94575.43
2019-05-15T02:04:19.653Z,94572.56
2019-05-15T02:06:49.727Z,94562.99
2019-05-15T02:09:19.268Z,94573.75
2019-05-15T02:11:49.033Z,94572.88
2019-05-15T02:14:19.130Z,94561.11
2019-05-15T02:16:48.987Z,94556.86
2019-05-15T02:19:19.351Z,94554.45
2019-05-15T02:21:49.051Z,94551.63
2019-05-15T02:24:19.052Z,94547.19
2019-05-15T02:26:48.883Z,94552.73
2019-05-15T02:29:22.585Z,94543.08
2019-05-15T02:31:50.474Z,94550.41
2019-05-15T02:34:20.063Z,94543.83
2019-05-15T02:36:49.672Z,94547.89
2019-05-15T02:39:19.309Z,94549.08
2019-05-15T02:41:49.479Z,94547.88
2019-05-15T02:44:20.075Z,94542.32
2019-05-15T02:46:50.270Z,94549.54
2019-05-15T02:49:20.028Z,94538.84
2019-05-15T02:51:49.577Z,94538.77
2019-05-15T02:54:19.749Z,94535.70
2019-05-15T02:56:49.760Z,94540.17
2019-05-15T02:59:19.794Z,94541.83
2019-05-15T03:01:49.721Z,94536.99
2019-05-15T03:04:19.911Z,94541.11
2019-05-15T03:06:50.112Z,94545.16
2019-05-15T03:09:19.846Z,94542.20
2019-05-15T03:11:49.852Z,94540.98
2019-05-15T03:14:21.615Z,94518.64
2019-05-15T03:16:51.408Z,94542.63
2019-05-15T03:19:20.885Z,94545.20
2019-05-15T03:21:50.520Z,94538.66
2019-05-15T03:24:20.085Z,94534.92
2019-05-15T03:26:49.879Z,94548.25
2019-05-15T03:29:24.632Z,94554.83
2019-05-15T03:35:05.105Z,94538.72
2019-05-15T03:37:33.893Z,94534.13
2019-05-15T03:40:05.553Z,94543.03
2019-05-15T03:42:51.969Z,94551.05
2019-05-15T03:45:23.196Z,94544.21
2019-05-15T03:47:52.758Z,94540.68
2019-05-15T03:50:40.117Z,94549.84
2019-05-15T03:53:10.958Z,94546.17
2019-05-15T03:55:40.980Z,94548.55
2019-05-15T03:58:10.990Z,94561.13
2019-05-15T04:00:43.557Z,94565.07
2019-05-15T04:03:13.258Z,94559.79
2019-05-15T04:05:42.888Z,94570.10
2019-05-15T04:08:12.535Z,94574.94
2019-05-15T04:10:42.167Z,94576.42
2019-05-15T04:13:23.841Z,94576.31
2019-05-15T04:15:55.063Z,94574.41
2019-05-15T04:18:24.905Z,94574.41
2019-05-15T04:20:54.819Z,94582.86
2019-05-15T04:23:24.559Z,94582.46
2019-05-15T04:25:54.163Z,94577.62
2019-05-15T04:28:29.014Z,94580.27
2019-05-15T04:31:00.436Z,94572.26
2019-05-15T04:34:02.010Z,94576.61
2019-05-15T04:36:45.952Z,94573.36
2019-05-15T04:38:45.107Z,94583.15
2019-05-15T04:41:15.901Z,94594.72
2019-05-15T04:43:49.143Z,94585.52
2019-05-15T04:46:19.740Z,94585.11
2019-05-15T04:48:50.208Z,94561.73
2019-05-15T04:51:21.191Z,94603.41
2019-05-15T04:53:50.797Z,94589.35
2019-05-15T04:56:20.483Z,94589.54
2019-05-15T04:58:51.057Z,94585.49
2019-05-15T05:01:21.012Z,94586.55
2019-05-15T05:03:50.639Z,94579.24
2019-05-15T05:06:21.873Z,94563.52
2019-05-15T05:08:51.498Z,94577.89
2019-05-15T05:11:23.850Z,94577.30
2019-05-15T05:13:59.993Z,94581.99
2019-05-15T05:16:29.743Z,94590.51
2019-05-15T05:18:59.595Z,94588.80
2019-05-15T05:21:29.280Z,94591.80
2019-05-15T05:23:58.924Z,94590.81
2019-05-15T05:26:29.341Z,94587.67
2019-05-15T05:29:01.373Z,94594.05
2019-05-15T05:31:32.422Z,94590.63
2019-05-15T05:34:03.358Z,94592.41
2019-05-15T05:36:38.547Z,94595.60
2019-05-15T05:39:09.562Z,94601.06
2019-05-15T05:41:39.449Z,94601.30
2019-05-15T05:44:09.081Z,94600.09
2019-05-15T05:46:39.732Z,94601.03
2019-05-15T05:49:09.833Z,94599.64
2019-05-15T05:51:39.456Z,94602.27
2019-05-15T05:54:09.044Z,94608.51
2019-05-15T05:56:38.719Z,94601.45
2019-05-15T05:59:09.402Z,94599.69
2019-05-15T06:01:48.180Z,94612.47
2019-05-15T06:04:18.608Z,94623.56
2019-05-15T06:06:50.058Z,94607.69
2019-05-15T06:09:20.921Z,94611.72
2019-05-15T06:11:50.478Z,94631.36
2019-05-15T06:14:19.988Z,94614.57
2019-05-15T06:16:49.411Z,94613.13
2019-05-15T06:19:19.169Z,94611.16
2019-05-15T06:21:56.746Z,94618.05
2019-05-15T06:24:21.759Z,94619.16
2019-05-15T06:26:51.302Z,94618.79
2019-05-15T06:29:21.089Z,94621.95
2019-05-15T06:31:50.668Z,94633.53
2019-05-15T06:34:20.292Z,94628.54
2019-05-15T06:36:49.923Z,94626.33
2019-05-15T06:39:19.638Z,94619.50
2019-05-15T06:41:49.121Z,94627.40
2019-05-15T06:44:18.948Z,94611.69
2019-05-15T06:46:48.687Z,94623.25
2019-05-15T06:49:18.429Z,94614.52
2019-05-15T06:51:48.748Z,94630.68
2019-05-15T06:54:19.055Z,94606.23
2019-05-15T06:56:49.405Z,94620.80
2019-05-15T06:59:20.716Z,94617.11
2019-05-15T07:01:50.326Z,94595.59
2019-05-15T07:04:19.958Z,94603.34
2019-05-15T07:06:49.438Z,94599.36
2019-05-15T07:09:19.109Z,94605.62
2019-05-15T07:11:48.673Z,94605.15
2019-05-15T07:14:18.333Z,94603.45
2019-05-15T07:16:48.830Z,94618.30
2019-05-15T07:19:19.199Z,94613.76
2019-05-15T07:21:49.139Z,94614.73
2019-05-15T07:24:18.705Z,94612.61
2019-05-15T07:26:48.497Z,94595.36
2019-05-15T07:29:19.019Z,94594.02
2019-05-15T07:31:48.687Z,94601.91
2019-05-15T07:34:18.821Z,94597.30
2019-05-15T07:36:49.419Z,94588.91
2019-05-15T07:39:19.238Z,94590.27
2019-05-15T07:41:48.894Z,94595.80
2019-05-15T07:44:18.973Z,94594.80
2019-05-15T07:46:49.009Z,94592.79
2019-05-15T07:49:18.582Z,94599.46
2019-05-15T07:51:49.019Z,94597.09
2019-05-15T07:54:18.898Z,94584.60
2019-05-15T07:56:48.867Z,94578.80
2019-05-15T07:59:18.910Z,94580.45
2019-05-15T08:01:48.995Z,94571.59
2019-05-15T08:04:26.289Z,94582.86
2019-05-15T08:06:50.021Z,94577.00
2019-05-15T08:09:20.570Z,94583.89
2019-05-15T08:11:50.134Z,94574.40
2019-05-15T08:14:19.611Z,94571.42
2019-05-15T08:16:49.104Z,94584.05
2019-05-15T08:19:19.200Z,94590.97
2019-05-15T08:21:51.951Z,94591.48
2019-05-15T08:24:20.844Z,94581.63
2019-05-15T08:26:50.400Z,94582.93
2019-05-15T08:29:21.875Z,94559.25
2019-05-15T08:31:52.476Z,94579.44
2019-05-15T08:34:22.125Z,94569.63
2019-05-15T08:36:54.796Z,94552.07
2019-05-15T08:39:24.696Z,94579.83
2019-05-15T08:41:54.257Z,94569.71
2019-05-15T08:44:23.825Z,94564.50
2019-05-15T08:46:53.400Z,94559.87
2019-05-15T08:49:23.103Z,94573.53
2019-05-15T08:51:52.733Z,94567.99
2019-05-15T08:54:22.390Z,94575.61
2019-05-15T08:56:51.956Z,94576.62
2019-05-15T08:59:21.442Z,94570.03
2019-05-15T09:01:50.926Z,94566.73
2019-05-15T09:04:30.451Z,94561.67
2019-05-15T09:06:51.920Z,94554.88
2019-05-15T09:09:21.506Z,94564.91
2019-05-15T09:11:51.064Z,94553.77
2019-05-15T09:14:20.571Z,94540.70
2019-05-15T09:16:50.249Z,94540.95
2019-05-15T09:19:19.814Z,94540.21
2019-05-15T09:21:49.604Z,94541.81
2019-05-15T09:24:19.854Z,94542.45
2019-05-15T09:26:49.715Z,94547.50
2019-05-15T09:29:19.611Z,94537.54
2019-05-15T09:31:50.675Z,94543.33
2019-05-15T09:34:20.225Z,94544.06
2019-05-15T09:36:49.802Z,94552.03
2019-05-15T09:39:19.462Z,94556.67
2019-05-15T09:41:50.700Z,94539.99
2019-05-15T09:44:21.965Z,94545.98
2019-05-15T09:46:51.731Z,94544.06
2019-05-15T09:49:21.533Z,94532.14
2019-05-15T09:51:51.041Z,94519.02
2019-05-15T09:54:20.739Z,94514.66
2019-05-15T09:56:50.366Z,94505.11
2019-05-15T09:59:21.136Z,94510.20
2019-05-15T10:01:50.845Z,94507.90
2019-05-15T10:04:20.432Z,94492.75
2019-05-15T10:06:57.731Z,94506.49
2019-05-15T10:09:28.427Z,94497.77
2019-05-15T10:11:58.383Z,94488.48
2019-05-15T10:14:29.641Z,94493.39
2019-05-15T10:16:59.508Z,94495.19
2019-05-15T10:19:29.742Z,94497.25
2019-05-15T10:21:59.755Z,94489.19
2019-05-15T10:24:29.617Z,94491.59
2019-05-15T10:26:59.343Z,94482.25
2019-05-15T10:29:29.038Z,94479.92
2019-05-15T10:31:58.726Z,94467.83
2019-05-15T10:34:28.887Z,94491.00
2019-05-15T10:36:58.983Z,94485.31
2019-05-15T10:39:29.069Z,94476.81
2019-05-15T10:41:58.710Z,94469.08
2019-05-15T10:44:29.582Z,94469.12
2019-05-15T10:46:59.059Z,94470.45
2019-05-15T10:49:28.641Z,94466.75
2019-05-15T10:51:58.073Z,94470.27
2019-05-15T10:54:29.065Z,94458.63
2019-05-15T10:57:00.819Z,94461.16
2019-05-15T10:59:30.157Z,94463.13
2019-05-15T11:01:59.718Z,94451.23
2019-05-15T11:04:29.425Z,94447.84
2019-05-15T11:06:59.029Z,94450.80
2019-05-15T11:09:28.790Z,94452.02
2019-05-15T11:11:58.501Z,94445.11
2019-05-15T11:14:28.684Z,94437.37
2019-05-15T11:16:58.949Z,94439.25
2019-05-15T11:19:35.783Z,94447.41
2019-05-15T11:22:00.219Z,94448.86
2019-05-15T11:24:32.441Z,94449.16
2019-05-15T11:27:01.264Z,94449.27
2019-05-15T11:29:31.038Z,94450.61
2019-05-15T11:32:00.528Z,94446.05
2019-05-15T11:34:30.049Z,94446.49
2019-05-15T11:36:59.609Z,94453.49
2019-05-15T11:39:29.163Z,94462.72
2019-05-15T11:41:59.544Z,94450.06
2019-05-15T11:44:29.294Z,94451.15
2019-05-15T11:46:58.865Z,94449.16
2019-05-15T11:49:29.074Z,94446.63
2019-05-15T11:52:00.522Z,94437.81
2019-05-15T11:54:30.295Z,94437.69
2019-05-15T11:57:00.837Z,94440.17
2019-05-15T11:59:30.479Z,94430.19
2019-05-15T12:02:00.056Z,94425.97
2019-05-15T12:04:33.834Z,94430.32
2019-05-15T12:07:02.660Z,94428.19
2019-05-15T12:09:32.230Z,94411.49
2019-05-15T12:12:03.599Z,94414.96
2019-05-15T12:14:34.679Z,94404.02
2019-05-15T12:17:11.337Z,94413.06
2019-05-15T12:19:39.156Z,94422.48
2019-05-15T12:22:11.696Z,94431.03
2019-05-15T12:24:42.465Z,94433.52
2019-05-15T12:27:17.866Z,94428.27
2019-05-15T12:29:43.469Z,94433.02
2019-05-15T12:32:26.572Z,94425.86
2019-05-15T12:34:44.555Z,94428.66
2019-05-15T12:37:14.152Z,94437.28
2019-05-15T12:39:43.814Z,94422.58
2019-05-15T13:00:00.184Z,94430.45
2019-05-15T13:02:29.830Z,94451.14
2019-05-15T13:05:00.951Z,94465.45
2019-05-15T13:07:34.597Z,94465.30
2019-05-15T13:10:05.680Z,94470.97
2019-05-15T13:12:47.720Z,94476.13
2019-05-15T13:15:09.782Z,94476.97
2019-05-15T13:17:41.425Z,94479.84
2019-05-15T13:20:12.583Z,94482.85
2019-05-15T13:22:54.222Z,94483.77
2019-05-15T13:25:23.995Z,94475.85
2019-05-15T13:30:51.117Z,94467.72
2019-05-15T13:33:20.830Z,94467.22
2019-05-15T13:35:50.335Z,94464.94
2019-05-15T13:38:19.879Z,94466.20
2019-05-15T13:40:49.638Z,94453.42
2019-05-15T13:43:19.221Z,94444.72
2019-05-15T13:45:49.201Z,94461.73
2019-05-15T13:48:22.160Z,94473.17
2019-05-15T13:50:51.728Z,94475.59
2019-05-15T13:53:21.271Z,94484.98
2019-05-15T13:55:50.849Z,94474.62
2019-05-15T13:58:20.490Z,94470.13
2019-05-15T14:00:50.248Z,94446.49
2019-05-15T14:03:21.563Z,94467.81
2019-05-15T14:05:51.465Z,94467.42
2019-05-15T14:08:28.539Z,94461.49
2019-05-15T14:10:58.117Z,94456.11
2019-05-15T14:13:28.990Z,94457.02
2019-05-15T14:15:59.751Z,94458.86
2019-05-15T14:18:30.225Z,94472.85
2019-05-15T14:21:01.940Z,94480.09
2019-05-15T14:23:32.514Z,94481.86
2019-05-15T14:26:15.222Z,94495.00
2019-05-15T14:28:39.284Z,94499.23
2019-05-15T14:31:10.879Z,94507.08
2019-05-15T14:33:40.970Z,94522.92
2019-05-15T14:36:13.949Z,94508.64
2019-05-15T14:38:45.804Z,94487.73
2019-05-15T14:41:20.985Z,94489.66
2019-05-15T14:43:57.723Z,94488.38
2019-05-15T14:46:28.558Z,94481.76
2019-05-15T14:48:58.410Z,94483.80
2019-05-15T14:51:31.052Z,94478.59
2019-05-15T14:54:00.993Z,94465.35
2019-05-15T14:56:30.745Z,94467.33
2019-05-15T14:59:01.417Z,94447.33
2019-05-15T15:01:30.818Z,94442.82
2019-05-15T15:04:00.496Z,94430.86
2019-05-15T15:06:33.265Z,94453.23
2019-05-15T15:09:03.185Z,94464.64
2019-05-15T15:11:32.671Z,94469.70
2019-05-15T15:14:02.267Z,94459.05
2019-05-15T15:16:31.902Z,94478.73
2019-05-15T15:19:01.924Z,94479.53
2019-05-15T15:21:31.692Z,94469.25
2019-05-15T15:24:03.887Z,94472.83
2019-05-15T15:26:33.619Z,94464.12
2019-05-15T15:29:03.340Z,94449.60
2019-05-15T15:31:33.005Z,94446.03
2019-05-15T15:34:02.512Z,94457.34
2019-05-15T15:36:31.996Z,94458.20
2019-05-15T15:39:02.277Z,94458.58
2019-05-15T15:41:31.907Z,94450.73
2019-05-15T15:44:01.544Z,94455.70
2019-05-15T15:46:30.972Z,94441.55
2019-05-15T15:49:00.533Z,94454.07
2019-05-15T15:51:30.260Z,94452.36
2019-05-15T15:53:59.823Z,94452.78
2019-05-15T15:56:29.350Z,94459.33
2019-05-15T15:58:59.591Z,94464.47
2019-05-15T16:01:31.276Z,94462.03
2019-05-15T16:04:00.432Z,94462.77
2019-05-15T16:06:30.031Z,94464.78
2019-05-15T16:08:59.818Z,94470.31
2019-05-15T16:11:29.362Z,94470.53
2019-05-15T16:13:58.869Z,94474.64
2019-05-15T16:16:29.065Z,94472.32
2019-05-15T16:18:58.732Z,94469.77
2019-05-15T16:21:28.918Z,94482.23
2019-05-15T16:24:12.468Z,94490.86
2019-05-15T16:26:30.859Z,94490.33
2019-05-15T16:29:01.621Z,94494.38
2019-05-15T16:31:31.563Z,94485.63
2019-05-15T16:34:01.324Z,94477.28
2019-05-15T16:36:32.464Z,94482.89
2019-05-15T16:39:08.169Z,94493.56
2019-05-15T16:41:38.158Z,94496.02
2019-05-15T16:44:08.719Z,94497.84
2019-05-15T16:46:39.285Z,94490.77
2019-05-15T16:49:12.547Z,94487.62
2019-05-15T16:51:42.460Z,94481.59
2019-05-15T16:54:12.063Z,94492.65
2019-05-15T16:56:41.668Z,94498.20
2019-05-15T16:59:11.093Z,94500.23
2019-05-15T17:01:41.080Z,94502.98
2019-05-15T17:04:10.737Z,94509.39
2019-05-15T17:06:40.273Z,94504.44
2019-05-15T17:09:20.856Z,94503.73
2019-05-15T17:11:41.211Z,94504.94
2019-05-15T17:14:10.629Z,94506.05
2019-05-15T17:16:40.587Z,94520.92
2019-05-15T17:19:10.353Z,94535.61
2019-05-15T17:21:39.975Z,94553.02
2019-05-15T17:24:09.640Z,94546.63
2019-05-15T17:26:39.199Z,94535.77
2019-05-15T17:29:09.997Z,94546.44
2019-05-15T17:31:39.987Z,94545.14
2019-05-15T17:34:11.663Z,94548.38
2019-05-15T17:36:41.351Z,94547.66
2019-05-15T17:39:10.959Z,94553.17
2019-05-15T17:41:42.182Z,94551.33
2019-05-15T17:44:11.973Z,94553.43
2019-05-15T17:46:41.940Z,94548.41
2019-05-15T17:49:15.371Z,94560.23
2019-05-15T17:51:44.672Z,94569.41
2019-05-15T17:54:14.254Z,94578.66
2019-05-15T17:56:43.700Z,94583.34
2019-05-15T17:59:13.223Z,94571.46
2019-05-15T18:01:43.072Z,94572.56
2019-05-15T18:04:12.635Z,94580.08
2019-05-15T18:06:42.443Z,94585.42
2019-05-15T18:09:12.201Z,94591.48
2019-05-15T18:11:44.462Z,94588.38
2019-05-15T18:14:12.978Z,94598.53
2019-05-15T18:16:42.816Z,94594.19
2019-05-15T18:19:12.678Z,94605.59
2019-05-15T18:21:42.186Z,94601.34
2019-05-15T18:24:15.161Z,94608.77
2019-05-15T18:26:44.866Z,94619.16
2019-05-15T18:29:14.589Z,94625.23
2019-05-15T18:31:44.557Z,94632.04
2019-05-15T18:36:51.606Z,94619.91
2019-05-15T18:39:21.397Z,94623.95
2019-05-15T18:41:50.962Z,94633.67
2019-05-15T18:44:20.610Z,94637.01
2019-05-15T18:46:50.045Z,94633.19
2019-05-15T18:49:19.785Z,94623.15
2019-05-15T18:51:49.570Z,94629.33
2019-05-15T18:54:20.708Z,94630.00
2019-05-15T18:56:50.453Z,94629.70
2019-05-15T18:59:20.021Z,94617.47
2019-05-15T19:01:49.597Z,94617.16
2019-05-15T19:04:19.387Z,94622.83
2019-05-15T19:06:53.573Z,94625.41
2019-05-15T19:09:23.417Z,94623.28
2019-05-15T19:11:52.959Z,94620.94
2019-05-15T19:14:22.447Z,94617.82
2019-05-15T19:16:53.887Z,94628.69
2019-05-15T19:19:24.970Z,94628.13
2019-05-15T19:21:58.170Z,94628.91
2019-05-15T19:24:27.554Z,94626.61
2019-05-15T19:26:58.704Z,94620.25
2019-05-15T19:29:30.238Z,94618.91
2019-05-15T19:31:59.662Z,94612.00
2019-05-15T19:34:29.081Z,94622.63
2019-05-15T19:36:58.644Z,94613.51
2019-05-15T19:39:29.923Z,94619.76
2019-05-15T19:41:59.492Z,94617.09
2019-05-15T19:44:29.154Z,94618.62
2019-05-15T19:46:58.865Z,94614.44
2019-05-15T19:49:28.572Z,94611.36
2019-05-15T19:51:58.247Z,94613.72
2019-05-15T19:54:28.914Z,94613.66
2019-05-15T19:56:59.869Z,94617.86
2019-05-15T19:59:29.766Z,94628.11
2019-05-15T20:01:59.667Z,94633.61
2019-05-15T20:04:30.960Z,94631.11
2019-05-15T20:07:00.627Z,94635.22
2019-05-15T20:09:30.304Z,94639.82
2019-05-15T20:11:59.942Z,94640.02
2019-05-15T20:14:29.446Z,94642.80
2019-05-15T20:16:59.297Z,94644.64
2019-05-15T20:19:28.912Z,94655.92
2019-05-15T20:21:58.463Z,94659.88
2019-05-15T20:24:29.321Z,94660.97
2019-05-15T20:26:58.965Z,94664.61
2019-05-15T20:29:29.021Z,94662.84
2019-05-15T20:31:58.823Z,94654.99
2019-05-15T20:34:28.808Z,94669.30
2019-05-15T20:36:59.918Z,94671.48
2019-05-15T20:39:29.573Z,94675.66
2019-05-15T20:41:59.134Z,94666.47
2019-05-15T20:44:28.719Z,94668.38
2019-05-15T20:46:58.989Z,94669.23
2019-05-15T20:49:29.137Z,94676.67
2019-05-15T20:51:58.746Z,94663.08
2019-05-15T20:54:28.538Z,94655.70
2019-05-15T20:56:59.189Z,94659.95
2019-05-15T20:59:28.853Z,94647.20
2019-05-15T21:01:59.354Z,94645.56
2019-05-15T21:04:29.546Z,94645.05
2019-05-15T21:06:59.046Z,94642.47
2019-05-15T21:09:30.662Z,94639.83
2019-05-15T21:11:59.759Z,94631.67
2019-05-15T21:14:29.253Z,94635.61
2019-05-15T21:16:59.156Z,94629.30
2019-05-15T21:19:29.068Z,94628.23
2019-05-15T21:21:58.863Z,94628.17
2019-05-15T21:24:28.445Z,94625.91
2019-05-15T21:26:58.236Z,94628.77
2019-05-15T21:29:28.890Z,94645.50
2019-05-15T21:31:58.517Z,94629.41
2019-05-15T21:34:37.332Z,94631.53
2019-05-15T21:36:59.333Z,94626.58
2019-05-15T21:39:30.217Z,94632.63
2019-05-15T21:42:00.253Z,94635.14
2019-05-15T21:44:29.682Z,94633.92
2019-05-15T21:46:59.104Z,94637.18
2019-05-15T21:49:28.687Z,94634.08
2019-05-15T21:51:58.495Z,94633.71
2019-05-15T21:54:28.305Z,94629.35
2019-05-15T21:57:07.557Z,94625.02
2019-05-15T21:59:28.991Z,94631.77
2019-05-15T22:01:59.034Z,94634.55
2019-05-15T22:04:30.534Z,94627.61
2019-05-15T22:06:59.763Z,94631.73
2019-05-15T22:09:29.848Z,94624.17
2019-05-15T22:12:01.203Z,94627.84
2019-05-15T22:14:31.247Z,94626.28
2019-05-15T22:17:02.207Z,94616.42
2019-05-15T22:19:31.832Z,94620.87
2019-05-15T22:22:01.398Z,94621.61
2019-05-15T22:24:31.114Z,94625.83
2019-05-15T22:27:00.667Z,94628.80
2019-05-15T22:29:30.477Z,94632.80
2019-05-15T22:32:00.041Z,94632.77
2019-05-15T22:34:29.704Z,94633.27
2019-05-15T22:36:59.191Z,94631.00
2019-05-15T22:39:28.605Z,94635.95
2019-05-15T22:41:58.271Z,94635.64
2019-05-15T22:44:28.186Z,94629.38
2019-05-15T22:46:58.178Z,94609.77
2019-05-15T22:49:28.856Z,94622.81
2019-05-15T22:51:58.515Z,94619.08
2019-05-15T22:54:28.152Z,94613.37
2019-05-15T22:56:57.965Z,94609.95
2019-05-15T22:59:28.327Z,94604.03
2019-05-15T23:01:58.269Z,94605.58
2019-05-15T23:04:28.722Z,94599.81
2019-05-15T23:06:58.458Z,94596.80
2019-05-15T23:09:28.375Z,94595.92
2019-05-15T23:11:58.879Z,94592.08
2019-05-15T23:14:30.023Z,94589.45
2019-05-15T23:16:59.514Z,94587.08
2019-05-15T23:19:29.080Z,94599.47
2019-05-15T23:21:59.167Z,94602.17
2019-05-15T23:24:28.968Z,94602.09
2019-05-15T23:26:58.448Z,94602.83
2019-05-15T23:29:28.183Z,94593.98
2019-05-15T23:31:58.399Z,94592.66
2019-05-15T23:34:28.153Z,94597.81
2019-05-15T23:36:57.744Z,94601.60
2019-05-15T23:39:27.229Z,94591.78
2019-05-15T23:41:58.474Z,94594.06
2019-05-15T23:44:28.979Z,94591.08
2019-05-15T23:46:58.432Z,94588.73
2019-05-15T23:49:28.062Z,94581.61
2019-05-15T23:51:58.213Z,94571.95
2019-05-15T23:54:28.067Z,94571.61
2019-05-15T23:56:58.417Z,94575.20
2019-05-15T23:59:28.295Z,94569.45
